Time;durP1;ratioP1;P1;durP2;ratioP2;P2;SDS_P1;SDS_P2;PMS_P1;PMS_P2;Temp;Humidity;BMP_temperature;BMP_pressure;BME280_temperature;BME280_humidity;BME280_pressure;Samples;Min_cycle;Max_cycle;Signal;HPM_P1;HPM_P2
2021/09/04 00:00:32;;;;;;;11.80;6.00;;;;;;;;;;5099421;28;20474;-71
2021/09/04 00:03:00;;;;;;;9.20;5.93;;;;;;;;;;5091502;28;20451;-70
2021/09/04 00:05:28;;;;;;;8.40;4.90;;;;;;;;;;5099516;28;20950;-71
2021/09/04 00:07:57;;;;;;;9.30;5.40;;;;;;;;;;5098867;28;20466;-71
2021/09/04 00:10:26;;;;;;;8.97;5.60;;;;;;;;;;5099541;28;20934;-71
2021/09/04 00:12:54;;;;;;;9.00;5.17;;;;;;;;;;5099632;28;20859;-71
2021/09/04 00:15:22;;;;;;;12.10;6.40;;;;;;;;;;5082330;28;20486;-71
2021/09/04 00:17:49;;;;;;;13.40;4.27;;;;;;;;;;5079114;28;20503;-71
2021/09/04 00:20:18;;;;;;;8.90;5.10;;;;;;;;;;5079112;28;20464;-71
2021/09/04 00:22:46;;;;;;;8.30;5.60;;;;;;;;;;5076924;28;20445;-71
2021/09/04 00:25:14;;;;;;;8.93;4.37;;;;;;;;;;5088417;28;20447;-70
2021/09/04 00:27:43;;;;;;;9.00;5.00;;;;;;;;;;5086343;28;20479;-71
2021/09/04 00:30:12;;;;;;;6.80;5.30;;;;;;;;;;5078802;28;20468;-71
2021/09/04 00:32:39;;;;;;;5.47;3.60;;;;;;;;;;5078683;28;20467;-71
2021/09/04 00:35:08;;;;;;;20.83;5.67;;;;;;;;;;5078011;28;20729;-71
2021/09/04 00:37:36;;;;;;;13.53;5.47;;;;;;;;;;5077816;28;20488;-71
2021/09/04 00:40:04;;;;;;;6.90;4.23;;;;;;;;;;5077957;28;20566;-71
2021/09/04 00:42:31;;;;;;;6.90;4.03;;;;;;;;;;5077427;28;20465;-70
2021/09/04 00:45:01;;;;;;;11.33;4.93;;;;;;;;;;5077502;28;20773;-71
2021/09/04 00:47:28;;;;;;;8.20;5.63;;;;;;;;;;5078658;28;20555;-71
2021/09/04 00:49:56;;;;;;;9.60;5.53;;;;;;;;;;5077698;28;20926;-71
2021/09/04 00:52:24;;;;;;;8.27;4.43;;;;;;;;;;5078167;28;20464;-71
2021/09/04 00:54:52;;;;;;;8.63;4.53;;;;;;;;;;5077908;28;20852;-71
2021/09/04 00:57:19;;;;;;;7.13;4.27;;;;;;;;;;5077372;28;20480;-71
2021/09/04 00:59:47;;;;;;;8.23;3.57;;;;;;;;;;5078109;28;20464;-70
2021/09/04 01:02:17;;;;;;;12.10;5.20;;;;;;;;;;5077603;28;20712;-70
2021/09/04 01:04:44;;;;;;;11.60;4.67;;;;;;;;;;5077115;28;20762;-71
2021/09/04 01:07:21;;;;;;;6.60;4.30;;;;;;;;;;5079049;28;20471;-72
2021/09/04 01:09:49;;;;;;;9.83;4.60;;;;;;;;;;5077639;28;20464;-70
2021/09/04 01:12:17;;;;;;;4.80;4.30;;;;;;;;;;5076889;28;20459;-71
2021/09/04 01:14:44;;;;;;;8.73;4.10;;;;;;;;;;5078285;28;20471;-71
2021/09/04 01:17:12;;;;;;;9.00;4.30;;;;;;;;;;5076787;28;20581;-71
2021/09/04 01:19:41;;;;;;;8.60;4.37;;;;;;;;;;5077659;28;20468;-71
2021/09/04 01:22:10;;;;;;;9.10;4.37;;;;;;;;;;5076437;28;20457;-71
2021/09/04 01:24:37;;;;;;;11.60;4.03;;;;;;;;;;5077421;28;20606;-71
2021/09/04 01:27:07;;;;;;;7.20;3.37;;;;;;;;;;5077383;28;20539;-71
2021/09/04 01:29:35;;;;;;;7.80;3.83;;;;;;;;;;5076823;28;20711;-71
2021/09/04 01:32:03;;;;;;;8.63;3.57;;;;;;;;;;5076572;28;20483;-70
2021/09/04 01:34:31;;;;;;;5.10;3.83;;;;;;;;;;5077041;28;20492;-71
2021/09/04 01:36:58;;;;;;;9.53;4.87;;;;;;;;;;5077100;28;20916;-71
2021/09/04 01:39:26;;;;;;;8.50;3.93;;;;;;;;;;5076772;28;20482;-70
2021/09/04 01:41:54;;;;;;;7.97;3.83;;;;;;;;;;5076662;28;20475;-70
2021/09/04 01:44:26;;;;;;;5.07;3.40;;;;;;;;;;5077459;28;20807;-71
2021/09/04 01:46:57;;;;;;;12.50;5.67;;;;;;;;;;5077156;28;20472;-70
2021/09/04 01:49:24;;;;;;;10.53;3.50;;;;;;;;;;5077430;28;20872;-71
2021/09/04 01:51:52;;;;;;;5.27;3.30;;;;;;;;;;5076938;28;20452;-72
2021/09/04 01:54:20;;;;;;;4.90;3.63;;;;;;;;;;5076922;28;20471;-70
2021/09/04 01:56:47;;;;;;;8.83;5.43;;;;;;;;;;5076445;28;20488;-70
2021/09/04 01:59:15;;;;;;;7.57;4.27;;;;;;;;;;5076163;28;20464;-70
2021/09/04 02:01:47;;;;;;;7.10;3.80;;;;;;;;;;5076859;28;20463;-71
2021/09/04 02:04:18;;;;;;;6.80;4.43;;;;;;;;;;5077037;28;20864;-70
2021/09/04 02:06:45;;;;;;;6.70;3.47;;;;;;;;;;5076691;28;20539;-71
2021/09/04 02:09:13;;;;;;;6.40;3.80;;;;;;;;;;5076345;28;20837;-70
2021/09/04 02:11:41;;;;;;;5.00;3.40;;;;;;;;;;5076360;28;20860;-70
2021/09/04 02:14:09;;;;;;;20.43;4.47;;;;;;;;;;5076377;28;20472;-71
2021/09/04 02:16:36;;;;;;;7.07;3.67;;;;;;;;;;5076152;28;20940;-70
2021/09/04 02:19:06;;;;;;;8.83;4.40;;;;;;;;;;5076292;28;20460;-71
2021/09/04 02:21:34;;;;;;;7.77;4.03;;;;;;;;;;5076007;28;20465;-70
2021/09/04 02:24:01;;;;;;;8.57;4.00;;;;;;;;;;5076732;28;20479;-71
2021/09/04 02:26:29;;;;;;;9.80;4.37;;;;;;;;;;5076620;28;20470;-71
2021/09/04 02:28:57;;;;;;;7.23;3.87;;;;;;;;;;5075553;28;20456;-71
2021/09/04 02:31:25;;;;;;;6.00;4.70;;;;;;;;;;5075480;28;20685;-70
2021/09/04 02:33:52;;;;;;;4.30;3.40;;;;;;;;;;5076200;28;20464;-70
2021/09/04 02:36:22;;;;;;;8.07;3.97;;;;;;;;;;5076079;28;20492;-70
2021/09/04 02:38:50;;;;;;;6.60;4.43;;;;;;;;;;5076376;28;20467;-71
2021/09/04 02:41:18;;;;;;;12.57;4.53;;;;;;;;;;5075805;28;20472;-70
2021/09/04 02:43:46;;;;;;;8.60;4.53;;;;;;;;;;5075790;28;20521;-71
2021/09/04 02:46:14;;;;;;;6.23;3.57;;;;;;;;;;5083374;28;20467;-71
2021/09/04 02:48:41;;;;;;;8.70;4.27;;;;;;;;;;5095914;28;20466;-71
2021/09/04 02:51:09;;;;;;;9.43;3.83;;;;;;;;;;5096819;28;20474;-71
2021/09/04 02:53:38;;;;;;;8.10;3.40;;;;;;;;;;5096571;28;20448;-71
2021/09/04 02:56:06;;;;;;;7.43;3.37;;;;;;;;;;5096687;28;20467;-71
2021/09/04 02:58:34;;;;;;;6.87;4.40;;;;;;;;;;5095845;28;20452;-71
2021/09/04 03:01:02;;;;;;;11.53;3.70;;;;;;;;;;5095809;28;20554;-71
2021/09/04 03:03:30;;;;;;;7.03;4.30;;;;;;;;;;5096758;28;20451;-71
2021/09/04 03:05:58;;;;;;;5.80;3.80;;;;;;;;;;5096079;28;20717;-71
2021/09/04 03:08:27;;;;;;;10.20;4.93;;;;;;;;;;5095611;28;20466;-71
2021/09/04 03:10:56;;;;;;;6.20;3.27;;;;;;;;;;5096413;28;20471;-71
2021/09/04 03:13:24;;;;;;;9.83;4.13;;;;;;;;;;5095653;28;20455;-71
2021/09/04 03:15:52;;;;;;;6.80;4.10;;;;;;;;;;5095995;28;20459;-71
2021/09/04 03:18:20;;;;;;;11.00;4.17;;;;;;;;;;5095222;28;20922;-71
2021/09/04 03:20:47;;;;;;;5.53;3.87;;;;;;;;;;5096626;28;20463;-71
2021/09/04 03:23:15;;;;;;;14.23;4.50;;;;;;;;;;5096786;28;20746;-71
2021/09/04 03:25:43;;;;;;;6.47;3.43;;;;;;;;;;5096904;28;20496;-71
2021/09/04 03:28:12;;;;;;;7.23;3.93;;;;;;;;;;5096948;28;20732;-72
2021/09/04 03:30:40;;;;;;;7.70;3.70;;;;;;;;;;5095858;28;20957;-71
2021/09/04 03:33:08;;;;;;;6.53;4.80;;;;;;;;;;5096498;28;20459;-71
2021/09/04 03:35:36;;;;;;;7.90;4.20;;;;;;;;;;5094808;28;20490;-71
2021/09/04 03:38:03;;;;;;;7.10;4.40;;;;;;;;;;5095939;28;20494;-71
2021/09/04 03:40:31;;;;;;;4.97;3.70;;;;;;;;;;5099044;28;20459;-71
2021/09/04 03:42:59;;;;;;;8.37;4.27;;;;;;;;;;5097535;28;20463;-71
2021/09/04 03:45:29;;;;;;;11.03;4.30;;;;;;;;;;5097115;28;20494;-70
2021/09/04 03:47:59;;;;;;;9.00;3.90;;;;;;;;;;5096779;28;20487;-71
2021/09/04 03:50:27;;;;;;;5.27;4.00;;;;;;;;;;5097028;28;20468;-71
2021/09/04 03:52:55;;;;;;;7.33;3.90;;;;;;;;;;5096884;28;20704;-71
2021/09/04 03:55:23;;;;;;;17.57;4.43;;;;;;;;;;5096753;28;20867;-71
2021/09/04 03:57:51;;;;;;;6.00;4.57;;;;;;;;;;5098380;28;20490;-71
2021/09/04 04:00:19;;;;;;;5.73;3.53;;;;;;;;;;5100063;27;20463;-71
2021/09/04 04:02:48;;;;;;;5.67;3.30;;;;;;;;;;5100242;27;20807;-71
2021/09/04 04:05:16;;;;;;;5.43;3.70;;;;;;;;;;5100054;27;20474;-71
2021/09/04 04:07:43;;;;;;;8.13;3.93;;;;;;;;;;5100913;27;20534;-71
2021/09/04 04:10:12;;;;;;;9.30;4.10;;;;;;;;;;5099605;27;20863;-71
2021/09/04 04:12:39;;;;;;;14.03;5.17;;;;;;;;;;5099846;27;20467;-71
2021/09/04 04:15:07;;;;;;;6.20;3.60;;;;;;;;;;5099686;27;20882;-71
2021/09/04 04:17:35;;;;;;;9.13;4.63;;;;;;;;;;5099455;27;20545;-71
2021/09/04 04:20:05;;;;;;;7.13;4.60;;;;;;;;;;5099619;27;20466;-71
2021/09/04 04:22:33;;;;;;;7.23;4.10;;;;;;;;;;5099921;27;20470;-71
2021/09/04 04:25:00;;;;;;;10.10;4.23;;;;;;;;;;5099796;27;20463;-71
2021/09/04 04:27:28;;;;;;;4.27;3.47;;;;;;;;;;5099768;27;20462;-71
2021/09/04 04:29:56;;;;;;;7.13;3.67;;;;;;;;;;5098855;27;20701;-71
2021/09/04 04:32:29;;;;;;;8.83;3.50;;;;;;;;;;5099418;27;20518;-71
2021/09/04 04:34:57;;;;;;;7.77;3.70;;;;;;;;;;5099832;27;20934;-71
2021/09/04 04:37:26;;;;;;;5.97;3.87;;;;;;;;;;5099435;27;20483;-71
2021/09/04 04:39:54;;;;;;;6.33;3.50;;;;;;;;;;5099249;27;20451;-72
2021/09/04 04:42:24;;;;;;;6.47;3.80;;;;;;;;;;5098934;27;20451;-73
2021/09/04 04:44:51;;;;;;;5.87;3.07;;;;;;;;;;5098759;27;20840;-72
2021/09/04 04:47:19;;;;;;;7.43;3.07;;;;;;;;;;5099531;27;20471;-71
2021/09/04 04:49:47;;;;;;;9.00;4.73;;;;;;;;;;5098862;28;20633;-71
2021/09/04 04:52:15;;;;;;;5.20;3.87;;;;;;;;;;5089702;28;20455;-72
2021/09/04 04:54:47;;;;;;;6.87;4.17;;;;;;;;;;5098451;28;20452;-72
2021/09/04 04:57:14;;;;;;;8.30;3.73;;;;;;;;;;5099157;28;20602;-72
2021/09/04 04:59:42;;;;;;;8.43;4.60;;;;;;;;;;5098141;28;20436;-71
2021/09/04 05:02:13;;;;;;;8.50;3.60;;;;;;;;;;5097220;28;20717;-71
2021/09/04 05:04:40;;;;;;;6.43;4.20;;;;;;;;;;5098531;27;20875;-71
2021/09/04 05:07:08;;;;;;;5.53;4.50;;;;;;;;;;5098580;27;20737;-72
2021/09/04 05:09:36;;;;;;;4.30;3.50;;;;;;;;;;5098057;27;20443;-72
2021/09/04 05:12:05;;;;;;;5.93;3.77;;;;;;;;;;5099149;27;20463;-72
2021/09/04 05:14:36;;;;;;;6.10;3.30;;;;;;;;;;5098763;27;20800;-73
2021/09/04 05:17:04;;;;;;;8.50;4.53;;;;;;;;;;5098821;27;20491;-72
2021/09/04 05:19:33;;;;;;;7.67;4.53;;;;;;;;;;5098714;27;20452;-72
2021/09/04 05:22:01;;;;;;;5.60;3.33;;;;;;;;;;5099483;28;20455;-72
2021/09/04 05:24:29;;;;;;;10.37;4.40;;;;;;;;;;5097574;27;20521;-72
2021/09/04 05:26:56;;;;;;;7.53;4.43;;;;;;;;;;5099429;27;20476;-72
2021/09/04 05:29:26;;;;;;;7.80;4.77;;;;;;;;;;5098598;27;20447;-72
2021/09/04 05:31:54;;;;;;;7.53;4.17;;;;;;;;;;5099146;27;20459;-72
2021/09/04 05:34:22;;;;;;;8.20;3.47;;;;;;;;;;5098358;27;20463;-72
2021/09/04 05:36:50;;;;;;;7.20;4.00;;;;;;;;;;5098020;27;20785;-72
2021/09/04 05:39:17;;;;;;;10.30;4.30;;;;;;;;;;5098593;28;20476;-72
2021/09/04 05:41:45;;;;;;;8.80;5.00;;;;;;;;;;5098016;27;20459;-72
2021/09/04 05:44:13;;;;;;;15.80;6.40;;;;;;;;;;5097611;28;20463;-72
2021/09/04 05:46:42;;;;;;;9.57;5.57;;;;;;;;;;5098126;28;20467;-72
2021/09/04 05:49:10;;;;;;;7.67;4.87;;;;;;;;;;5097727;27;20864;-72
2021/09/04 05:51:37;;;;;;;13.43;7.33;;;;;;;;;;5097930;27;20468;-72
2021/09/04 05:54:08;;;;;;;10.60;4.50;;;;;;;;;;5098120;28;20452;-72
2021/09/04 05:56:36;;;;;;;6.90;4.43;;;;;;;;;;5097861;27;20486;-72
2021/09/04 05:59:06;;;;;;;6.70;4.27;;;;;;;;;;5097627;27;20487;-72
2021/09/04 06:01:35;;;;;;;8.20;4.47;;;;;;;;;;5097674;27;20518;-72
2021/09/04 06:04:05;;;;;;;7.73;4.77;;;;;;;;;;5097229;28;20450;-72
2021/09/04 06:06:33;;;;;;;6.50;5.47;;;;;;;;;;5097643;27;20460;-72
2021/09/04 06:09:03;;;;;;;7.57;5.03;;;;;;;;;;5097547;27;20523;-72
2021/09/04 06:11:31;;;;;;;6.77;4.63;;;;;;;;;;5098324;27;20459;-71
2021/09/04 06:14:00;;;;;;;7.93;4.63;;;;;;;;;;5097367;28;20731;-71
2021/09/04 06:16:31;;;;;;;9.67;4.83;;;;;;;;;;5097283;27;20474;-71
2021/09/04 06:18:58;;;;;;;6.63;4.30;;;;;;;;;;5096602;28;20824;-71
2021/09/04 06:21:28;;;;;;;6.40;4.13;;;;;;;;;;5095713;28;20551;-71
2021/09/04 06:23:56;;;;;;;9.70;5.63;;;;;;;;;;5095996;28;20482;-71
2021/09/04 06:26:23;;;;;;;5.30;3.67;;;;;;;;;;5078334;28;20563;-71
2021/09/04 06:28:51;;;;;;;6.63;4.77;;;;;;;;;;5076629;28;20457;-71
2021/09/04 06:31:19;;;;;;;6.13;3.77;;;;;;;;;;5076532;28;20816;-71
2021/09/04 06:33:47;;;;;;;7.30;3.97;;;;;;;;;;5075894;28;20445;-71
2021/09/04 06:36:14;;;;;;;11.37;4.70;;;;;;;;;;5077362;28;20467;-71
2021/09/04 06:38:44;;;;;;;8.23;4.60;;;;;;;;;;5076549;28;20553;-72
2021/09/04 06:41:12;;;;;;;11.43;5.43;;;;;;;;;;5076290;28;20556;-70
2021/09/04 06:43:40;;;;;;;6.80;5.27;;;;;;;;;;5076509;28;20462;-72
2021/09/04 06:46:11;;;;;;;5.97;3.93;;;;;;;;;;5095747;28;20566;-72
2021/09/04 06:48:40;;;;;;;6.57;5.83;;;;;;;;;;5094636;28;20529;-71
2021/09/04 06:51:07;;;;;;;6.70;4.43;;;;;;;;;;5095171;28;20894;-71
2021/09/04 06:53:35;;;;;;;9.50;5.60;;;;;;;;;;5095673;28;20462;-72
2021/09/04 06:56:10;;;;;;;8.00;4.00;;;;;;;;;;5095010;28;20855;-71
2021/09/04 06:58:40;;;;;;;6.13;5.10;;;;;;;;;;5095831;28;20478;-72
2021/09/04 07:01:14;;;;;;;7.87;4.27;;;;;;;;;;5096691;28;20463;-73
2021/09/04 07:03:43;;;;;;;6.10;4.40;;;;;;;;;;5094175;28;20539;-71
2021/09/04 07:06:12;;;;;;;13.50;4.53;;;;;;;;;;5096122;28;20455;-72
2021/09/04 07:08:40;;;;;;;10.77;4.40;;;;;;;;;;5082171;28;20468;-73
2021/09/04 07:11:11;;;;;;;14.10;5.87;;;;;;;;;;5074757;28;20468;-72
2021/09/04 07:13:43;;;;;;;12.37;5.20;;;;;;;;;;5075135;28;20553;-72
2021/09/04 07:16:12;;;;;;;11.73;4.90;;;;;;;;;;5076189;28;20464;-71
2021/09/04 07:18:41;;;;;;;6.90;4.20;;;;;;;;;;5076644;28;20487;-71
2021/09/04 07:21:18;;;;;;;11.03;7.10;;;;;;;;;;5093397;28;20463;-71
2021/09/04 07:23:47;;;;;;;6.70;3.83;;;;;;;;;;5094199;28;20505;-73
2021/09/04 07:26:14;;;;;;;6.53;4.03;;;;;;;;;;5094497;28;20481;-72
2021/09/04 07:28:44;;;;;;;10.17;5.13;;;;;;;;;;5095441;28;20475;-72
2021/09/04 07:31:15;;;;;;;7.77;4.43;;;;;;;;;;5095457;28;20894;-72
2021/09/04 07:33:43;;;;;;;10.10;5.73;;;;;;;;;;5097316;28;20462;-72
2021/09/04 07:36:18;;;;;;;6.80;5.10;;;;;;;;;;5099450;28;20459;-71
2021/09/04 07:38:46;;;;;;;11.80;6.27;;;;;;;;;;5098777;28;20497;-71
2021/09/04 07:41:14;;;;;;;8.67;4.40;;;;;;;;;;5098547;28;20460;-71
2021/09/04 07:43:43;;;;;;;7.50;4.33;;;;;;;;;;5098043;28;20457;-71
2021/09/04 07:46:12;;;;;;;9.27;4.03;;;;;;;;;;5098419;28;20481;-71
2021/09/04 07:48:43;;;;;;;6.57;4.63;;;;;;;;;;5098350;28;20455;-72
2021/09/04 07:51:11;;;;;;;11.27;4.50;;;;;;;;;;5096945;28;20459;-72
2021/09/04 07:53:40;;;;;;;6.50;4.73;;;;;;;;;;5095082;28;20521;-72
2021/09/04 07:56:12;;;;;;;7.27;4.30;;;;;;;;;;5093521;28;20507;-72
2021/09/04 07:58:41;;;;;;;14.93;7.07;;;;;;;;;;5096373;28;20902;-71
2021/09/04 08:01:10;;;;;;;13.57;5.97;;;;;;;;;;5089031;28;20463;-71
2021/09/04 08:03:38;;;;;;;15.30;5.93;;;;;;;;;;5097519;28;20870;-72
2021/09/04 08:06:09;;;;;;;10.37;5.93;;;;;;;;;;5090506;28;20926;-71
2021/09/04 08:08:38;;;;;;;22.87;8.80;;;;;;;;;;5095705;28;20456;-72
2021/09/04 08:11:28;;;;;;;12.83;5.83;;;;;;;;;;5093441;27;20457;-70
2021/09/04 08:14:01;;;;;;;8.30;5.43;;;;;;;;;;5075470;28;20449;-71
2021/09/04 08:16:32;;;;;;;8.80;4.73;;;;;;;;;;5077688;28;20842;-72
2021/09/04 08:19:09;;;;;;;15.17;8.37;;;;;;;;;;5077343;28;21015;-72
2021/09/04 08:21:37;;;;;;;12.70;7.90;;;;;;;;;;5077900;28;21117;-72
2021/09/04 08:24:06;;;;;;;12.40;7.53;;;;;;;;;;5076032;28;20824;-73
2021/09/04 08:26:34;;;;;;;14.63;8.37;;;;;;;;;;5076489;28;20457;-72
2021/09/04 08:29:02;;;;;;;13.10;8.73;;;;;;;;;;5077696;28;20464;-72
2021/09/04 08:31:50;;;;;;;19.90;7.40;;;;;;;;;;5077090;28;20461;-72
2021/09/04 08:34:21;;;;;;;12.73;6.70;;;;;;;;;;5076984;28;20452;-72
2021/09/04 08:37:01;;;;;;;10.53;6.20;;;;;;;;;;5076980;28;20455;-72
2021/09/04 08:39:29;;;;;;;11.87;7.27;;;;;;;;;;5077149;28;20484;-71
2021/09/04 08:42:01;;;;;;;15.50;7.40;;;;;;;;;;5091740;28;20899;-71
2021/09/04 08:44:31;;;;;;;11.10;6.50;;;;;;;;;;5092557;28;20541;-71
2021/09/04 08:47:03;;;;;;;19.83;9.50;;;;;;;;;;5091874;28;20436;-70
2021/09/04 08:49:35;;;;;;;12.30;7.20;;;;;;;;;;5090793;28;20888;-71
2021/09/04 08:52:04;;;;;;;12.43;7.27;;;;;;;;;;5091572;28;20486;-71
2021/09/04 08:54:34;;;;;;;13.60;8.90;;;;;;;;;;5078379;28;20448;-71
2021/09/04 08:57:14;;;;;;;13.97;7.87;;;;;;;;;;5077317;28;20464;-71
2021/09/04 08:59:55;;;;;;;14.27;8.27;;;;;;;;;;5085594;28;20584;-69
2021/09/04 09:02:32;;;;;;;10.40;7.37;;;;;;;;;;5083024;28;20499;-71
2021/09/04 09:05:09;;;;;;;15.60;10.00;;;;;;;;;;5087360;27;20477;-72
2021/09/04 09:07:47;;;;;;;10.30;6.90;;;;;;;;;;5093113;28;20513;-69
2021/09/04 09:10:40;;;;;;;11.40;7.77;;;;;;;;;;5079176;28;20880;-71
2021/09/04 09:13:08;;;;;;;10.67;6.63;;;;;;;;;;5075056;28;20449;-70
2021/09/04 09:15:38;;;;;;;20.60;8.50;;;;;;;;;;5080460;28;20926;-70
2021/09/04 09:18:25;;;;;;;14.60;10.07;;;;;;;;;;5090059;28;20529;-72
2021/09/04 09:21:13;;;;;;;9.27;7.10;;;;;;;;;;5081676;28;20925;-70
2021/09/04 09:24:10;;;;;;;14.17;9.30;;;;;;;;;;5091060;28;20444;-68
2021/09/04 09:26:49;;;;;;;14.50;10.03;;;;;;;;;;5075638;28;20464;-73
2021/09/04 09:29:20;;;;;;;11.90;8.70;;;;;;;;;;5083744;28;20507;-70
2021/09/04 09:31:48;;;;;;;14.63;8.13;;;;;;;;;;5080837;28;20538;-72
2021/09/04 09:34:17;;;;;;;12.60;9.10;;;;;;;;;;5086312;28;20463;-71
2021/09/04 09:36:52;;;;;;;16.07;9.27;;;;;;;;;;5076508;28;20460;-71
2021/09/04 09:39:22;;;;;;;15.47;7.40;;;;;;;;;;5084679;28;20475;-71
2021/09/04 09:41:51;;;;;;;14.57;7.97;;;;;;;;;;5078154;28;20873;-71
2021/09/04 09:44:19;;;;;;;11.77;7.93;;;;;;;;;;5079965;28;20903;-72
2021/09/04 09:46:51;;;;;;;13.30;8.70;;;;;;;;;;5090589;28;20539;-72
2021/09/04 09:49:19;;;;;;;12.00;8.53;;;;;;;;;;5082341;28;20467;-71
2021/09/04 09:51:47;;;;;;;12.90;8.10;;;;;;;;;;5095087;28;20471;-72
2021/09/04 09:54:21;;;;;;;14.23;8.43;;;;;;;;;;5094015;28;20954;-70
2021/09/04 09:56:49;;;;;;;14.23;9.57;;;;;;;;;;5088223;28;20542;-70
2021/09/04 09:59:29;;;;;;;13.53;9.27;;;;;;;;;;5089236;28;20483;-71
2021/09/04 10:01:57;;;;;;;10.17;7.00;;;;;;;;;;5093855;27;20449;-71
2021/09/04 10:04:27;;;;;;;8.00;6.37;;;;;;;;;;5092448;28;20464;-72
2021/09/04 10:07:00;;;;;;;11.37;8.73;;;;;;;;;;5095391;28;20466;-71
2021/09/04 10:09:35;;;;;;;12.73;7.60;;;;;;;;;;5096059;28;20872;-72
2021/09/04 10:12:14;;;;;;;14.20;9.77;;;;;;;;;;5096636;28;20477;-72
2021/09/04 10:14:42;;;;;;;14.97;9.93;;;;;;;;;;5095196;28;20448;-71
2021/09/04 10:17:11;;;;;;;12.87;7.33;;;;;;;;;;5096373;28;20989;-71
2021/09/04 10:19:41;;;;;;;12.27;6.20;;;;;;;;;;5083583;28;20484;-71
2021/09/04 10:22:26;;;;;;;12.80;6.90;;;;;;;;;;5076622;28;20475;-72
2021/09/04 10:24:57;;;;;;;9.63;5.53;;;;;;;;;;5075770;28;20448;-71
2021/09/04 10:27:47;;;;;;;8.87;5.83;;;;;;;;;;5076410;28;20536;-72
2021/09/04 10:30:30;;;;;;;10.90;5.67;;;;;;;;;;5099822;27;20458;-71
2021/09/04 10:32:59;;;;;;;8.53;6.00;;;;;;;;;;5081415;28;20463;-71
2021/09/04 10:35:54;;;;;;;8.63;5.57;;;;;;;;;;5077994;28;20986;-69
2021/09/04 10:38:38;;;;;;;7.30;5.20;;;;;;;;;;5047296;28;20468;-71
2021/09/04 10:41:25;;;;;;;10.73;5.80;;;;;;;;;;5096719;28;20460;-70
2021/09/04 10:43:56;;;;;;;10.63;6.93;;;;;;;;;;5096660;28;20455;-70
2021/09/04 10:46:25;;;;;;;7.37;4.73;;;;;;;;;;5097332;28;20804;-69
2021/09/04 10:49:03;;;;;;;8.87;5.40;;;;;;;;;;5097991;28;20479;-72
2021/09/04 10:51:53;;;;;;;10.17;6.87;;;;;;;;;;5082114;28;20452;-72
2021/09/04 10:54:44;;;;;;;9.80;7.00;;;;;;;;;;5098754;28;20526;-72
2021/09/04 10:57:24;;;;;;;7.07;5.00;;;;;;;;;;5096119;28;20476;-71
2021/09/04 11:00:01;;;;;;;11.50;7.27;;;;;;;;;;5097184;28;20539;-71
2021/09/04 11:02:57;;;;;;;7.73;5.50;;;;;;;;;;5087475;28;20452;-70
2021/09/04 11:05:57;;;;;;;7.77;5.97;;;;;;;;;;5100197;28;20447;-70
2021/09/04 11:08:49;;;;;;;8.20;5.00;;;;;;;;;;5073705;28;20465;-70
2021/09/04 11:11:28;;;;;;;11.83;6.03;;;;;;;;;;5102186;27;20450;-71
2021/09/04 11:14:02;;;;;;;9.10;5.50;;;;;;;;;;5103317;27;20455;-70
2021/09/04 11:16:51;;;;;;;9.87;6.30;;;;;;;;;;5093403;27;20455;-70
2021/09/04 11:19:33;;;;;;;5.97;4.90;;;;;;;;;;5097575;27;20475;-71
2021/09/04 11:22:12;;;;;;;8.40;6.60;;;;;;;;;;5100504;28;20924;-71
2021/09/04 11:24:43;;;;;;;7.60;4.70;;;;;;;;;;5101646;28;20946;-70
2021/09/04 11:27:15;;;;;;;9.37;5.97;;;;;;;;;;5115805;27;20478;-71
2021/09/04 11:29:48;;;;;;;12.27;5.70;;;;;;;;;;5098836;28;20470;-70
2021/09/04 11:32:21;;;;;;;11.33;5.63;;;;;;;;;;5105850;27;20455;-71
2021/09/04 11:34:55;;;;;;;8.23;4.40;;;;;;;;;;5097666;28;20471;-71
2021/09/04 11:37:25;;;;;;;5.60;4.27;;;;;;;;;;5099989;28;20466;-70
2021/09/04 11:39:54;;;;;;;6.17;4.30;;;;;;;;;;5094022;28;20480;-72
2021/09/04 11:42:24;;;;;;;10.37;6.83;;;;;;;;;;5080620;28;20510;-71
2021/09/04 11:45:19;;;;;;;9.60;5.80;;;;;;;;;;5099569;28;20553;-73
2021/09/04 11:48:07;;;;;;;10.80;5.87;;;;;;;;;;5113395;28;20454;-72
2021/09/04 11:50:35;;;;;;;10.13;4.90;;;;;;;;;;5083800;28;20476;-70
2021/09/04 11:53:09;;;;;;;9.97;5.90;;;;;;;;;;5081815;28;20539;-71
2021/09/04 11:55:41;;;;;;;6.50;5.07;;;;;;;;;;5079740;28;20452;-72
2021/09/04 11:58:12;;;;;;;7.43;4.40;;;;;;;;;;5080373;28;20502;-71
2021/09/04 12:01:01;;;;;;;7.90;5.30;;;;;;;;;;5093089;28;20475;-71
2021/09/04 12:03:40;;;;;;;12.70;5.57;;;;;;;;;;5091599;28;20452;-71
2021/09/04 12:06:11;;;;;;;8.67;5.13;;;;;;;;;;5098187;28;20454;-71
2021/09/04 12:08:41;;;;;;;8.67;5.70;;;;;;;;;;5098064;28;20439;-72
2021/09/04 12:11:12;;;;;;;10.90;5.53;;;;;;;;;;5078712;28;20470;-71
2021/09/04 12:13:44;;;;;;;8.70;5.77;;;;;;;;;;5091774;28;20468;-72
2021/09/04 12:16:14;;;;;;;11.00;6.77;;;;;;;;;;5092117;27;20464;-70
2021/09/04 12:18:46;;;;;;;8.97;4.67;;;;;;;;;;5085770;28;20471;-71
2021/09/04 12:21:22;;;;;;;11.50;6.13;;;;;;;;;;5078494;28;20843;-71
2021/09/04 12:24:01;;;;;;;12.07;7.20;;;;;;;;;;5077822;28;20464;-71
2021/09/04 12:26:33;;;;;;;9.33;5.63;;;;;;;;;;5093840;28;20463;-71
2021/09/04 12:29:07;;;;;;;9.20;5.73;;;;;;;;;;5087198;28;20495;-71
2021/09/04 12:31:45;;;;;;;8.10;5.00;;;;;;;;;;5095246;28;20467;-71
2021/09/04 12:34:23;;;;;;;8.90;5.03;;;;;;;;;;5084528;28;20517;-71
2021/09/04 12:36:53;;;;;;;9.70;6.20;;;;;;;;;;5089400;28;20467;-70
2021/09/04 12:39:27;;;;;;;12.80;6.93;;;;;;;;;;5089292;28;20560;-71
2021/09/04 12:42:02;;;;;;;8.40;5.57;;;;;;;;;;5080270;28;20494;-71
2021/09/04 12:44:39;;;;;;;12.43;7.37;;;;;;;;;;5100784;28;20451;-71
2021/09/04 12:47:09;;;;;;;7.53;4.67;;;;;;;;;;5112239;27;20455;-71
2021/09/04 12:49:40;;;;;;;16.50;7.90;;;;;;;;;;5106078;28;20539;-71
2021/09/04 12:52:11;;;;;;;9.20;6.70;;;;;;;;;;5106560;28;20866;-71
2021/09/04 12:54:42;;;;;;;9.60;6.93;;;;;;;;;;5112338;28;20443;-71
2021/09/04 12:57:12;;;;;;;9.93;4.90;;;;;;;;;;5101996;28;20466;-73
2021/09/04 12:59:56;;;;;;;7.40;4.60;;;;;;;;;;5099949;28;20472;-72
2021/09/04 13:02:33;;;;;;;9.73;5.40;;;;;;;;;;5105524;28;20592;-72
2021/09/04 13:05:10;;;;;;;13.87;10.07;;;;;;;;;;5092739;28;20463;-72
2021/09/04 13:07:48;;;;;;;7.30;4.70;;;;;;;;;;5093801;28;20546;-71
2021/09/04 13:10:19;;;;;;;9.63;7.03;;;;;;;;;;5090883;28;20449;-72
2021/09/04 13:12:48;;;;;;;7.83;5.57;;;;;;;;;;5095032;28;20466;-72
2021/09/04 13:15:26;;;;;;;11.50;5.37;;;;;;;;;;5074914;28;20464;-72
2021/09/04 13:17:56;;;;;;;10.03;5.67;;;;;;;;;;5087261;28;20456;-70
2021/09/04 13:20:32;;;;;;;6.97;5.57;;;;;;;;;;5088210;28;20491;-71
2021/09/04 13:23:01;;;;;;;10.17;7.27;;;;;;;;;;5083961;28;20464;-69
2021/09/04 13:25:29;;;;;;;8.13;5.67;;;;;;;;;;5087980;28;20509;-70
2021/09/04 13:27:57;;;;;;;5.83;4.40;;;;;;;;;;5095479;28;20459;-70
2021/09/04 13:30:25;;;;;;;9.80;5.57;;;;;;;;;;5089856;28;20487;-70
2021/09/04 13:32:56;;;;;;;7.90;4.47;;;;;;;;;;5074229;28;20853;-69
2021/09/04 13:35:24;;;;;;;6.40;4.63;;;;;;;;;;5084690;28;20456;-71
2021/09/04 13:37:54;;;;;;;7.73;5.57;;;;;;;;;;5094786;28;20502;-71
2021/09/04 13:40:26;;;;;;;7.97;4.97;;;;;;;;;;5078216;28;20955;-71
2021/09/04 13:42:55;;;;;;;9.97;6.00;;;;;;;;;;5075021;28;20460;-71
2021/09/04 13:45:25;;;;;;;5.33;4.00;;;;;;;;;;5075053;28;20460;-70
2021/09/04 13:47:54;;;;;;;15.03;7.00;;;;;;;;;;5078752;28;20800;-72
2021/09/04 13:50:21;;;;;;;7.20;4.60;;;;;;;;;;5083079;28;20547;-72
2021/09/04 13:52:52;;;;;;;8.33;5.07;;;;;;;;;;5095945;28;20490;-72
2021/09/04 13:55:26;;;;;;;6.50;4.70;;;;;;;;;;5095958;28;20782;-71
2021/09/04 13:57:54;;;;;;;7.33;4.40;;;;;;;;;;5095649;28;20464;-71
2021/09/04 14:00:21;;;;;;;8.33;4.73;;;;;;;;;;5095396;28;20487;-70
2021/09/04 14:02:49;;;;;;;5.23;3.43;;;;;;;;;;5090993;28;21077;-71
2021/09/04 14:05:25;;;;;;;11.40;6.90;;;;;;;;;;5092956;28;20478;-71
2021/09/04 14:07:56;;;;;;;6.93;5.40;;;;;;;;;;5099853;27;20488;-72
2021/09/04 14:10:29;;;;;;;4.83;3.73;;;;;;;;;;5115619;27;20459;-73
2021/09/04 14:13:08;;;;;;;5.30;4.13;;;;;;;;;;5111750;27;20473;-72
2021/09/04 14:15:48;;;;;;;7.20;4.47;;;;;;;;;;5083934;28;20444;-73
2021/09/04 14:18:21;;;;;;;17.53;13.57;;;;;;;;;;5075682;28;20460;-73
2021/09/04 14:20:54;;;;;;;6.70;3.60;;;;;;;;;;5077372;28;20490;-72
2021/09/04 14:23:25;;;;;;;6.57;3.77;;;;;;;;;;5075650;28;20448;-73
2021/09/04 14:25:56;;;;;;;5.03;2.80;;;;;;;;;;5076031;28;20471;-73
2021/09/04 14:28:24;;;;;;;7.33;4.20;;;;;;;;;;5074343;28;20467;-72
2021/09/04 14:30:52;;;;;;;11.63;5.53;;;;;;;;;;5074065;28;20477;-73
2021/09/04 14:33:21;;;;;;;5.40;3.47;;;;;;;;;;5074455;28;21076;-73
2021/09/04 14:35:52;;;;;;;8.00;6.40;;;;;;;;;;5073538;28;21066;-73
2021/09/04 14:38:21;;;;;;;5.70;3.83;;;;;;;;;;5077363;28;20457;-73
2021/09/04 14:40:49;;;;;;;7.77;4.63;;;;;;;;;;5073487;28;20554;-73
2021/09/04 14:43:25;;;;;;;11.13;9.63;;;;;;;;;;5073063;28;20456;-72
2021/09/04 14:46:00;;;;;;;5.80;3.20;;;;;;;;;;5085508;28;20524;-73
2021/09/04 14:48:54;;;;;;;5.70;3.73;;;;;;;;;;5095577;28;20868;-72
2021/09/04 14:51:30;;;;;;;8.33;3.13;;;;;;;;;;5085081;28;20464;-73
2021/09/04 14:53:58;;;;;;;11.70;4.13;;;;;;;;;;5084166;28;20897;-72
2021/09/04 14:56:27;;;;;;;5.50;4.00;;;;;;;;;;5095598;28;20898;-72
2021/09/04 14:58:57;;;;;;;5.27;2.67;;;;;;;;;;5096609;28;20512;-71
2021/09/04 15:01:27;;;;;;;7.00;4.37;;;;;;;;;;5094628;28;20619;-72